createdAt,value
2022-10-27T00:00:56.072Z,63.22
2022-10-27T00:03:23.350Z,63.92
2022-10-27T00:05:50.583Z,63.74
2022-10-27T00:08:21.170Z,63.47
2022-10-27T00:11:03.743Z,63.06
2022-10-27T00:13:31.478Z,63.20
2022-10-27T00:16:09.791Z,63.40
2022-10-27T00:18:36.926Z,63.07
2022-10-27T00:21:10.789Z,62.12
2022-10-27T00:23:38.651Z,62.29
2022-10-27T00:26:08.616Z,62.23
2022-10-27T00:28:35.902Z,62.17
2022-10-27T00:31:17.536Z,61.52
2022-10-27T00:33:46.605Z,61.60
2022-10-27T00:36:22.347Z,61.35
2022-10-27T00:38:50.718Z,61.15
2022-10-27T00:41:25.258Z,60.76
2022-10-27T00:43:52.618Z,60.70
2022-10-27T00:46:34.368Z,61.09
2022-10-27T00:49:11.128Z,60.96
2022-10-27T00:51:43.437Z,61.04
2022-10-27T00:54:12.967Z,60.65
2022-10-27T00:56:40.408Z,60.88
2022-10-27T00:59:07.431Z,61.22
2022-10-27T01:01:36.243Z,61.28
2022-10-27T01:04:06.379Z,61.52
2022-10-27T01:06:35.774Z,61.32
2022-10-27T01:09:04.194Z,61.32
2022-10-27T01:11:31.225Z,61.84
2022-10-27T01:13:58.672Z,61.84
2022-10-27T01:16:52.134Z,62.25
2022-10-27T01:20:04.309Z,62.11
2022-10-27T01:22:44.878Z,62.40
2022-10-27T01:25:53.215Z,62.63
2022-10-27T01:28:52.269Z,62.44
2022-10-27T01:31:25.463Z,62.55
2022-10-27T01:34:17.547Z,63.16
2022-10-27T01:36:55.923Z,62.93
2022-10-27T01:39:38.032Z,62.78
2022-10-27T01:42:12.973Z,62.78
2022-10-27T01:44:48.061Z,62.82
2022-10-27T01:47:16.080Z,63.47
2022-10-27T01:49:43.831Z,63.71
2022-10-27T01:52:50.107Z,63.98
2022-10-27T01:56:00.687Z,63.71
2022-10-27T01:58:55.490Z,64.12
2022-10-27T02:02:00.489Z,64.03
2022-10-27T02:04:56.851Z,64.10
2022-10-27T02:07:57.107Z,64.28
2022-10-27T02:10:40.215Z,64.07
2022-10-27T02:13:07.959Z,64.07
2022-10-27T02:15:50.734Z,63.50
2022-10-27T02:18:26.454Z,63.92
2022-10-27T02:21:00.578Z,63.80
2022-10-27T02:23:28.583Z,64.57
2022-10-27T02:26:26.774Z,64.19
2022-10-27T02:28:58.342Z,64.39
2022-10-27T02:31:33.682Z,64.41
2022-10-27T02:34:01.904Z,64.53
2022-10-27T02:36:29.644Z,64.63
2022-10-27T02:38:56.697Z,64.90
2022-10-27T02:41:23.909Z,65.24
2022-10-27T02:43:50.973Z,65.30
2022-10-27T02:46:17.999Z,65.21
2022-10-27T02:48:45.015Z,64.99
2022-10-27T02:51:12.055Z,64.54
2022-10-27T02:53:39.140Z,64.77
2022-10-27T02:56:07.462Z,65.12
2022-10-27T02:58:35.327Z,64.61
2022-10-27T03:01:02.486Z,64.97
2022-10-27T03:03:29.634Z,64.87
2022-10-27T03:05:56.659Z,64.83
2022-10-27T03:08:23.713Z,64.95
2022-10-27T03:10:50.716Z,65.26
2022-10-27T03:13:17.769Z,65.25
2022-10-27T03:15:46.545Z,65.53
2022-10-27T03:18:13.843Z,65.64
2022-10-27T03:20:40.877Z,65.71
2022-10-27T03:23:07.973Z,65.14
2022-10-27T03:25:37.240Z,65.23
2022-10-27T03:28:04.395Z,65.13
2022-10-27T03:30:31.457Z,65.26
2022-10-27T03:32:58.668Z,65.50
2022-10-27T03:35:25.768Z,65.53
2022-10-27T03:37:57.885Z,65.54
2022-10-27T03:40:25.191Z,65.47
2022-10-27T03:42:54.136Z,65.71
2022-10-27T03:45:21.201Z,65.82
2022-10-27T03:47:48.183Z,65.75
2022-10-27T03:50:15.393Z,65.93
2022-10-27T03:52:42.797Z,65.86
2022-10-27T03:55:09.899Z,65.55
2022-10-27T03:57:36.905Z,65.75
2022-10-27T04:00:04.347Z,65.80
2022-10-27T04:02:38.888Z,65.43
2022-10-27T04:05:06.462Z,64.97
2022-10-27T04:07:33.519Z,64.69
2022-10-27T04:10:00.581Z,65.06
2022-10-27T04:12:27.702Z,65.27
2022-10-27T04:14:54.744Z,65.26
2022-10-27T04:17:21.926Z,64.88
2022-10-27T04:19:49.236Z,65.22
2022-10-27T04:22:16.230Z,65.49
2022-10-27T04:24:43.275Z,65.32
2022-10-27T04:29:37.507Z,65.13
2022-10-27T04:32:04.703Z,65.03
2022-10-27T04:34:31.811Z,65.28
2022-10-27T04:36:58.865Z,65.13
2022-10-27T04:39:25.871Z,65.03
2022-10-27T04:41:52.898Z,65.10
2022-10-27T04:44:19.872Z,65.26
2022-10-27T04:46:46.848Z,65.09
2022-10-27T04:49:13.858Z,65.37
2022-10-27T04:51:41.146Z,64.86
2022-10-27T04:54:08.471Z,65.14
2022-10-27T04:56:35.458Z,65.26
2022-10-27T04:59:02.492Z,65.39
2022-10-27T05:01:29.647Z,65.05
2022-10-27T05:03:56.780Z,65.09
2022-10-27T05:06:23.799Z,65.44
2022-10-27T05:08:50.899Z,65.06
2022-10-27T05:11:18.007Z,65.37
2022-10-27T05:13:49.371Z,65.77
2022-10-27T05:16:16.630Z,65.92
2022-10-27T05:18:44.106Z,65.98
2022-10-27T05:21:11.271Z,65.90
2022-10-27T05:23:38.380Z,65.73
2022-10-27T05:26:05.884Z,65.93
2022-10-27T05:28:32.978Z,65.85
2022-10-27T05:31:01.056Z,65.59
2022-10-27T05:33:28.857Z,66.03
2022-10-27T05:35:55.919Z,65.90
2022-10-27T05:38:22.957Z,65.54
2022-10-27T05:40:56.511Z,65.32
2022-10-27T05:43:24.487Z,65.87
2022-10-27T05:45:52.227Z,66.17
2022-10-27T05:48:19.297Z,65.44
2022-10-27T05:50:46.398Z,65.60
2022-10-27T05:53:13.405Z,65.29
2022-10-27T05:55:40.479Z,65.70
2022-10-27T05:58:07.525Z,65.64
2022-10-27T06:00:37.507Z,65.68
2022-10-27T06:03:08.194Z,65.33
2022-10-27T06:05:37.365Z,65.32
2022-10-27T06:08:04.657Z,65.61
2022-10-27T06:10:31.747Z,65.44
2022-10-27T06:13:03.351Z,65.54
2022-10-27T06:15:32.016Z,65.39
2022-10-27T06:17:59.388Z,65.49
2022-10-27T06:20:27.050Z,65.52
2022-10-27T06:22:54.193Z,65.55
2022-10-27T06:25:21.472Z,65.84
2022-10-27T06:27:48.542Z,65.65
2022-10-27T06:30:15.773Z,65.34
2022-10-27T06:32:43.116Z,65.59
2022-10-27T06:35:11.180Z,64.74
2022-10-27T06:37:40.366Z,64.52
2022-10-27T06:40:08.588Z,64.60
2022-10-27T06:42:49.417Z,64.61
2022-10-27T06:45:22.942Z,64.70
2022-10-27T06:48:02.153Z,63.71
2022-10-27T06:50:29.969Z,63.85
2022-10-27T06:52:57.228Z,64.01
2022-10-27T06:55:24.330Z,63.90
2022-10-27T06:57:51.942Z,63.91
2022-10-27T07:00:19.639Z,64.01
2022-10-27T07:02:47.982Z,64.00
2022-10-27T07:05:15.462Z,63.85
2022-10-27T07:07:51.072Z,63.13
2022-10-27T07:10:20.140Z,62.83
2022-10-27T07:13:02.013Z,63.04
2022-10-27T07:15:33.068Z,63.18
2022-10-27T07:18:04.591Z,62.91
2022-10-27T07:20:34.863Z,62.51
2022-10-27T07:23:03.462Z,62.20
2022-10-27T07:25:32.259Z,62.26
2022-10-27T07:28:01.977Z,62.45
2022-10-27T07:30:39.097Z,62.41
2022-10-27T07:33:06.438Z,61.78
2022-10-27T07:35:34.196Z,61.48
2022-10-27T07:38:02.857Z,60.98
2022-10-27T07:40:32.816Z,59.87
2022-10-27T07:43:06.556Z,59.47
2022-10-27T07:45:34.505Z,59.27
2022-10-27T07:48:01.585Z,59.44
2022-10-27T07:50:33.049Z,59.42
2022-10-27T07:53:01.561Z,58.68
2022-10-27T07:55:31.424Z,58.10
2022-10-27T07:58:00.555Z,57.63
2022-10-27T08:00:28.839Z,56.87
2022-10-27T08:02:56.051Z,57.05
2022-10-27T08:05:23.093Z,56.52
2022-10-27T08:07:50.486Z,56.50
2022-10-27T08:10:17.726Z,56.35
2022-10-27T08:12:45.406Z,56.18
2022-10-27T08:15:13.069Z,56.52
2022-10-27T08:17:41.020Z,55.82
2022-10-27T08:20:10.166Z,55.93
2022-10-27T08:22:37.354Z,56.01
2022-10-27T08:25:07.524Z,55.80
2022-10-27T08:27:37.220Z,55.59
2022-10-27T08:30:05.057Z,55.57
2022-10-27T08:35:04.258Z,55.18
2022-10-27T08:37:31.295Z,54.84
2022-10-27T08:39:58.281Z,54.39
2022-10-27T08:42:55.634Z,54.61
2022-10-27T08:45:45.920Z,54.65
2022-10-27T08:48:13.313Z,54.38
2022-10-27T08:50:44.014Z,54.12
2022-10-27T08:53:16.009Z,54.03
2022-10-27T08:55:49.228Z,53.85
2022-10-27T09:01:52.973Z,53.63
2022-10-27T09:04:26.020Z,53.98
2022-10-27T09:07:29.822Z,53.62
2022-10-27T09:10:02.885Z,53.54
2022-10-27T09:13:25.502Z,53.10
2022-10-27T09:15:58.165Z,53.39
2022-10-27T09:18:35.452Z,53.10
2022-10-27T09:21:10.680Z,53.03
2022-10-27T09:23:45.187Z,52.49
2022-10-27T09:26:15.488Z,52.21
2022-10-27T09:28:49.225Z,52.22
2022-10-27T09:31:39.087Z,51.91
2022-10-27T09:34:50.077Z,51.92
2022-10-27T09:37:21.525Z,51.68
2022-10-27T09:39:53.679Z,51.59
2022-10-27T09:42:21.608Z,51.51
2022-10-27T09:45:02.411Z,51.36
2022-10-27T09:47:35.995Z,51.60
2022-10-27T09:50:08.812Z,51.20
2022-10-27T09:52:44.496Z,51.30
2022-10-27T09:55:12.406Z,51.30
2022-10-27T09:57:42.183Z,51.09
2022-10-27T10:00:27.428Z,50.91
2022-10-27T10:02:59.863Z,50.94
2022-10-27T10:05:31.436Z,50.97
2022-10-27T10:08:24.882Z,51.01
2022-10-27T10:11:01.446Z,50.72
2022-10-27T10:13:34.224Z,50.75
2022-10-27T10:16:13.239Z,50.50
2022-10-27T10:18:46.656Z,50.37
2022-10-27T10:21:14.991Z,49.98
2022-10-27T10:23:53.319Z,50.49
2022-10-27T10:26:24.591Z,50.25
2022-10-27T10:28:55.577Z,49.94
2022-10-27T10:31:27.397Z,49.92
2022-10-27T10:34:04.163Z,49.68
2022-10-27T10:36:41.560Z,49.36
2022-10-27T10:39:30.324Z,49.40
2022-10-27T10:42:18.035Z,49.18
2022-10-27T10:44:48.034Z,49.28
2022-10-27T10:47:29.219Z,48.92
2022-10-27T10:50:00.779Z,48.80
2022-10-27T10:52:37.563Z,48.56
2022-10-27T10:55:36.618Z,46.97
2022-10-27T10:58:04.191Z,45.33
2022-10-27T11:00:31.346Z,42.63
2022-10-27T11:03:27.563Z,40.65
2022-10-27T11:06:02.389Z,37.89
2022-10-27T11:08:59.626Z,35.61
2022-10-27T11:11:33.036Z,33.66
2022-10-27T11:14:06.963Z,31.97
2022-10-27T11:16:36.178Z,30.91
2022-10-27T11:19:18.359Z,29.10
2022-10-27T11:21:58.921Z,28.87
2022-10-27T11:25:06.996Z,27.80
2022-10-27T11:27:50.107Z,27.40
2022-10-27T11:30:24.928Z,26.65
2022-10-27T11:33:30.575Z,25.44
2022-10-27T11:36:15.107Z,24.92
2022-10-27T11:39:09.257Z,24.18
2022-10-27T11:41:48.269Z,24.17
2022-10-27T11:44:15.393Z,24.05
2022-10-27T11:46:58.932Z,23.30
2022-10-27T11:49:42.399Z,22.60
2022-10-27T11:52:17.831Z,22.55
2022-10-27T11:54:46.953Z,22.01
2022-10-27T11:57:42.553Z,21.71
2022-10-27T12:00:24.086Z,22.09
2022-10-27T12:03:21.886Z,22.19
2022-10-27T12:05:59.055Z,22.09
2022-10-27T12:08:39.024Z,21.87
2022-10-27T12:11:49.813Z,21.68
2022-10-27T12:15:00.039Z,22.10
2022-10-27T12:17:52.612Z,21.38
2022-10-27T12:20:41.675Z,21.23
2022-10-27T12:23:45.340Z,21.01
2022-10-27T12:26:27.566Z,21.40
2022-10-27T12:28:57.271Z,21.72
2022-10-27T12:31:29.514Z,22.12
2022-10-27T12:33:59.589Z,22.63
2022-10-27T12:36:48.064Z,22.48
2022-10-27T12:39:51.291Z,22.21
2022-10-27T12:42:50.876Z,22.35
2022-10-27T12:45:43.585Z,22.11
2022-10-27T12:48:43.707Z,22.08
2022-10-27T12:51:35.479Z,22.22
2022-10-27T12:58:22.562Z,22.74
2022-10-27T13:01:30.483Z,22.84
2022-10-27T13:04:22.216Z,22.99
2022-10-27T13:07:34.707Z,22.75
2022-10-27T13:10:54.320Z,22.56
2022-10-27T13:13:39.832Z,22.81
2022-10-27T13:16:36.303Z,23.38
2022-10-27T13:19:24.227Z,23.59
2022-10-27T13:22:09.283Z,23.46
2022-10-27T13:24:51.478Z,23.38
2022-10-27T13:28:11.330Z,23.21
2022-10-27T13:30:43.174Z,23.29
2022-10-27T13:33:34.231Z,23.69
2022-10-27T13:36:23.157Z,24.32
2022-10-27T13:39:13.602Z,23.39
2022-10-27T13:42:00.856Z,22.75
2022-10-27T13:44:34.698Z,22.58
2022-10-27T13:47:04.742Z,21.94
2022-10-27T13:49:40.648Z,21.74
2022-10-27T13:52:17.388Z,21.90
2022-10-27T13:55:23.928Z,21.35
2022-10-27T13:58:21.054Z,21.20
2022-10-27T14:01:23.238Z,21.21
2022-10-27T14:04:21.113Z,20.87
2022-10-27T14:06:57.489Z,20.76
2022-10-27T14:09:32.986Z,20.76
2022-10-27T14:12:13.960Z,21.03
2022-10-27T14:14:41.928Z,20.88
2022-10-27T14:17:21.314Z,21.06
2022-10-27T14:19:54.869Z,21.37
2022-10-27T14:22:37.546Z,21.17
2022-10-27T14:25:29.671Z,21.05
2022-10-27T14:28:20.651Z,21.44
2022-10-27T14:31:19.097Z,21.64
2022-10-27T14:33:47.655Z,21.69
2022-10-27T14:36:33.555Z,23.50
2022-10-27T14:39:37.584Z,25.55
2022-10-27T14:42:31.285Z,27.89
2022-10-27T14:45:20.901Z,29.73
2022-10-27T14:48:03.873Z,30.98
2022-10-27T14:50:51.626Z,32.28
2022-10-27T14:53:35.969Z,32.43
2022-10-27T14:56:16.921Z,33.37
2022-10-27T14:59:21.630Z,33.91
2022-10-27T15:01:49.589Z,33.62
2022-10-27T15:04:28.396Z,34.31
2022-10-27T15:07:02.979Z,34.87
2022-10-27T15:09:38.544Z,35.22
2022-10-27T15:12:31.356Z,35.65
2022-10-27T15:15:03.901Z,35.74
2022-10-27T15:17:36.385Z,36.12
2022-10-27T15:20:06.797Z,36.65
2022-10-27T15:22:35.667Z,37.17
2022-10-27T15:25:05.028Z,38.04
2022-10-27T15:27:33.398Z,38.13
2022-10-27T15:30:01.872Z,38.83
2022-10-27T15:32:38.888Z,39.39
2022-10-27T15:35:28.368Z,39.70
2022-10-27T15:37:56.827Z,39.99
2022-10-27T15:40:37.694Z,40.55
2022-10-27T15:43:25.379Z,40.54
2022-10-27T15:46:07.619Z,40.94
2022-10-27T15:48:40.156Z,41.13
2022-10-27T15:51:10.426Z,41.31
2022-10-27T15:53:46.430Z,41.29
2022-10-27T15:56:22.928Z,41.90
2022-10-27T15:59:20.048Z,41.94
2022-10-27T16:01:52.599Z,42.08
2022-10-27T16:04:40.159Z,42.56
2022-10-27T16:07:13.248Z,42.88
2022-10-27T16:09:42.700Z,43.05
2022-10-27T16:12:33.307Z,43.24
2022-10-27T16:15:05.347Z,43.39
2022-10-27T16:17:45.032Z,43.70
2022-10-27T16:20:20.965Z,43.94
2022-10-27T16:22:48.776Z,44.11
2022-10-27T16:25:18.900Z,44.56
2022-10-27T16:27:45.965Z,44.66
2022-10-27T16:30:21.249Z,44.79
2022-10-27T16:32:54.619Z,45.06
2022-10-27T16:35:21.838Z,45.19
2022-10-27T16:37:50.179Z,45.31
2022-10-27T16:40:18.275Z,45.76
2022-10-27T16:42:50.484Z,45.98
2022-10-27T16:45:20.678Z,46.30
2022-10-27T16:47:52.264Z,46.59
2022-10-27T16:50:20.379Z,46.86
2022-10-27T16:52:55.676Z,46.86
2022-10-27T16:55:24.154Z,47.12
2022-10-27T16:57:55.885Z,47.34
2022-10-27T17:00:23.397Z,47.13
2022-10-27T17:02:50.961Z,47.37
2022-10-27T17:05:21.609Z,47.44
2022-10-27T17:07:50.482Z,47.67
2022-10-27T17:10:17.843Z,47.57
2022-10-27T17:12:44.976Z,47.85
2022-10-27T17:15:12.108Z,48.13
2022-10-27T17:17:39.341Z,48.47
2022-10-27T17:20:06.977Z,48.73
2022-10-27T17:22:34.058Z,48.91
2022-10-27T17:25:01.001Z,49.03
2022-10-27T17:27:28.131Z,49.02
2022-10-27T17:29:55.134Z,49.14
2022-10-27T17:32:22.133Z,49.46
2022-10-27T17:34:49.132Z,49.93
2022-10-27T17:37:16.216Z,50.18
2022-10-27T17:39:43.199Z,49.94
2022-10-27T17:42:10.596Z,50.46
2022-10-27T17:44:37.684Z,50.73
2022-10-27T17:47:05.057Z,50.96
2022-10-27T17:49:32.411Z,51.30
2022-10-27T17:51:59.655Z,51.65
2022-10-27T17:54:26.672Z,51.69
2022-10-27T17:56:53.785Z,52.20
2022-10-27T17:59:20.894Z,52.27
2022-10-27T18:01:49.848Z,52.56
2022-10-27T18:04:17.298Z,52.89
2022-10-27T18:06:44.555Z,53.21
2022-10-27T18:09:12.992Z,53.40
2022-10-27T18:11:42.077Z,53.50
2022-10-27T18:14:15.300Z,53.74
2022-10-27T18:16:44.274Z,53.90
2022-10-27T18:19:13.825Z,54.14
2022-10-27T18:21:44.098Z,54.66
2022-10-27T18:24:13.601Z,54.84
2022-10-27T18:26:43.214Z,55.13
2022-10-27T18:29:14.375Z,55.40
2022-10-27T18:31:42.195Z,55.35
2022-10-27T18:34:12.238Z,55.56
2022-10-27T18:36:41.546Z,55.71
2022-10-27T18:39:15.714Z,55.96
2022-10-27T18:41:43.882Z,56.23
2022-10-27T18:44:11.496Z,56.24
2022-10-27T18:46:39.166Z,55.93
2022-10-27T18:49:09.422Z,56.07
2022-10-27T18:51:43.131Z,56.59
2022-10-27T18:54:13.463Z,56.81
2022-10-27T18:56:40.681Z,57.06
2022-10-27T18:59:08.385Z,57.37
2022-10-27T19:01:36.749Z,57.64
2022-10-27T19:04:08.436Z,57.83
2022-10-27T19:06:37.268Z,58.06
2022-10-27T19:09:05.614Z,58.05
2022-10-27T19:11:36.267Z,58.56
2022-10-27T19:14:04.382Z,58.64
2022-10-27T19:16:31.706Z,58.44
2022-10-27T19:19:00.171Z,58.77
2022-10-27T19:21:28.930Z,58.91
2022-10-27T19:23:59.708Z,59.31
2022-10-27T19:26:30.645Z,59.28
2022-10-27T19:28:58.766Z,59.50
2022-10-27T19:31:30.359Z,59.38
2022-10-27T19:33:58.580Z,59.45
2022-10-27T19:36:30.528Z,59.25
2022-10-27T19:38:59.664Z,59.33
2022-10-27T19:41:31.557Z,59.74
2022-10-27T19:43:59.205Z,60.20
2022-10-27T19:46:28.456Z,60.43
2022-10-27T19:48:58.822Z,60.80
2022-10-27T19:51:32.296Z,61.19
2022-10-27T19:54:00.209Z,61.57
2022-10-27T19:56:32.318Z,61.65
2022-10-27T19:59:03.275Z,61.70
2022-10-27T20:01:34.446Z,61.68
2022-10-27T20:04:04.021Z,61.68
2022-10-27T20:06:31.308Z,62.06
2022-10-27T20:08:58.652Z,61.91
2022-10-27T20:11:29.596Z,61.84
2022-10-27T20:13:57.316Z,62.13
2022-10-27T20:16:28.891Z,62.14
2022-10-27T20:19:01.100Z,62.03
2022-10-27T20:21:28.729Z,62.11
2022-10-27T20:23:55.882Z,62.39
2022-10-27T20:26:28.865Z,62.11
2022-10-27T20:29:00.547Z,61.71
2022-10-27T20:31:28.871Z,61.75
2022-10-27T20:33:56.614Z,62.54
2022-10-27T20:36:24.237Z,62.48
2022-10-27T20:38:52.584Z,62.79
2022-10-27T20:41:23.282Z,62.60
2022-10-27T20:43:55.987Z,62.74
2022-10-27T20:46:28.382Z,63.11
2022-10-27T20:48:57.307Z,63.00
2022-10-27T20:51:27.805Z,62.53
2022-10-27T20:53:55.245Z,62.55
2022-10-27T20:56:37.172Z,62.44
2022-10-27T20:59:06.241Z,62.47
2022-10-27T21:01:41.257Z,62.31
2022-10-27T21:04:14.629Z,62.60
2022-10-27T21:06:47.632Z,63.15
2022-10-27T21:09:17.865Z,63.56
2022-10-27T21:11:46.228Z,63.57
2022-10-27T21:14:13.841Z,63.82
2022-10-27T21:16:41.534Z,64.06
2022-10-27T21:19:10.657Z,63.96
2022-10-27T21:21:38.704Z,64.03
2022-10-27T21:24:06.461Z,63.97
2022-10-27T21:26:33.854Z,64.04
2022-10-27T21:29:01.978Z,64.14
2022-10-27T21:31:31.354Z,63.98
2022-10-27T21:34:03.464Z,64.02
2022-10-27T21:36:31.081Z,63.97
2022-10-27T21:38:58.475Z,63.88
2022-10-27T21:41:25.723Z,64.15
2022-10-27T21:43:55.917Z,64.16
2022-10-27T21:46:27.108Z,64.39
2022-10-27T21:48:59.617Z,64.29
2022-10-27T21:51:27.781Z,64.10
2022-10-27T21:54:01.862Z,64.21
2022-10-27T21:56:35.087Z,64.16
2022-10-27T21:59:02.616Z,64.25
2022-10-27T22:01:30.440Z,64.48
2022-10-27T22:03:58.113Z,64.32
2022-10-27T22:06:31.644Z,64.14
2022-10-27T22:08:59.492Z,64.35
2022-10-27T22:11:30.698Z,64.40
2022-10-27T22:14:00.719Z,64.25
2022-10-27T22:16:29.874Z,64.32
2022-10-27T22:19:04.245Z,64.34
2022-10-27T22:21:35.337Z,64.30
2022-10-27T22:24:02.626Z,64.28
2022-10-27T22:26:31.351Z,64.03
2022-10-27T22:28:58.455Z,64.44
2022-10-27T22:31:30.551Z,64.51
2022-10-27T22:33:59.272Z,64.58
2022-10-27T22:36:26.997Z,64.60
2022-10-27T22:39:08.004Z,64.37
2022-10-27T22:41:35.583Z,64.21
2022-10-27T22:44:02.809Z,64.25
2022-10-27T22:46:32.292Z,64.43
2022-10-27T22:49:00.234Z,64.45
2022-10-27T22:51:28.669Z,64.48
2022-10-27T22:53:57.740Z,64.92
2022-10-27T22:56:32.130Z,64.94
2022-10-27T22:59:03.798Z,65.21
2022-10-27T23:01:35.226Z,64.86
2022-10-27T23:04:04.741Z,65.00
2022-10-27T23:06:35.640Z,64.97
2022-10-27T23:09:06.623Z,64.91
2022-10-27T23:11:36.360Z,64.96
2022-10-27T23:14:04.997Z,65.08
2022-10-27T23:16:33.406Z,65.02
2022-10-27T23:19:01.232Z,64.97
2022-10-27T23:21:29.033Z,65.01
2022-10-27T23:23:58.183Z,64.99
2022-10-27T23:26:35.823Z,64.92
2022-10-27T23:29:07.404Z,65.13
2022-10-27T23:31:35.193Z,65.06
2022-10-27T23:34:05.940Z,65.10
2022-10-27T23:36:35.123Z,65.30
2022-10-27T23:39:02.735Z,65.24
2022-10-27T23:41:29.893Z,65.13
2022-10-27T23:43:59.149Z,65.20
2022-10-27T23:46:28.128Z,65.34
2022-10-27T23:48:55.465Z,65.13
2022-10-27T23:51:23.331Z,65.06
2022-10-27T23:53:51.461Z,65.19
2022-10-27T23:56:18.911Z,65.08
2022-10-27T23:58:46.386Z,64.92
